Time;durP1;ratioP1;P1;durP2;ratioP2;P2;SDS_P1;SDS_P2;PMS_P1;PMS_P2;Temp;Humidity;BMP_temperature;BMP_pressure;BME280_temperature;BME280_humidity;BME280_pressure;Samples;Min_cycle;Max_cycle;Signal;HPM_P1;HPM_P2
2022/05/15 00:00:49;;;;;;;9.38;5.75;;;;;;;17.61;56.13;95100.94;5060735;28;20275;-62
2022/05/15 00:03:21;;;;;;;5.97;5.47;;;;;;;17.59;56.04;95096.81;5059440;28;20228;-70
2022/05/15 00:05:52;;;;;;;6.63;5.13;;;;;;;17.54;55.75;95094.75;5054241;28;20217;-66
2022/05/15 00:08:17;;;;;;;7.15;5.65;;;;;;;17.64;54.87;95097.88;5052940;28;20262;-69
2022/05/15 00:10:44;;;;;;;9.90;5.60;;;;;;;17.59;55.08;95094.97;5061202;28;20193;-69
2022/05/15 00:13:10;;;;;;;5.63;5.13;;;;;;;17.56;55.28;95095.38;5064767;28;20259;-61
2022/05/15 00:15:39;;;;;;;6.53;5.10;;;;;;;17.54;54.99;95101.91;5061950;28;20235;-73
2022/05/15 00:18:06;;;;;;;7.65;5.63;;;;;;;17.50;55.83;95097.97;5060251;28;20213;-63
2022/05/15 00:20:32;;;;;;;6.50;4.97;;;;;;;17.44;55.75;95094.25;5059617;28;20714;-66
2022/05/15 00:22:58;;;;;;;6.47;5.78;;;;;;;17.31;56.21;95100.25;5061914;28;20208;-66
2022/05/15 00:25:24;;;;;;;6.25;5.65;;;;;;;17.34;56.38;95096.41;5062634;28;20225;-66
2022/05/15 00:27:49;;;;;;;6.97;6.00;;;;;;;17.29;56.17;95098.81;5063425;28;20373;-61
2022/05/15 00:30:16;;;;;;;6.38;5.82;;;;;;;17.08;57.40;95097.81;5062537;28;20241;-66
2022/05/15 00:32:42;;;;;;;7.03;5.53;;;;;;;17.11;57.61;95100.09;5063318;28;20225;-63
2022/05/15 00:35:08;;;;;;;6.40;5.80;;;;;;;17.12;57.56;95090.28;5064085;28;20212;-72
2022/05/15 00:37:34;;;;;;;6.30;5.72;;;;;;;17.01;57.73;95088.97;5063983;28;20311;-67
2022/05/15 00:39:59;;;;;;;8.30;6.13;;;;;;;17.06;57.47;95105.16;5065464;28;20243;-62
2022/05/15 00:42:25;;;;;;;7.15;6.07;;;;;;;17.01;57.94;95096.94;5048280;28;20308;-68
2022/05/15 00:44:50;;;;;;;7.95;6.38;;;;;;;17.01;57.92;95102.25;5062995;28;20216;-65
2022/05/15 00:47:16;;;;;;;6.85;6.10;;;;;;;16.95;58.18;95108.31;5062128;28;20252;-67
2022/05/15 00:49:42;;;;;;;6.45;5.82;;;;;;;16.87;58.87;95100.47;5062741;28;20189;-71
2022/05/15 00:52:12;;;;;;;6.22;5.75;;;;;;;16.82;58.69;95102.88;5063431;28;20235;-67
2022/05/15 00:54:45;;;;;;;7.05;6.45;;;;;;;16.80;58.79;95105.69;5062816;28;20235;-66
2022/05/15 00:57:43;;;;;;;6.30;5.70;;;;;;;16.73;59.24;95102.97;5052833;28;20318;-68
2022/05/15 01:00:15;;;;;;;7.55;6.00;;;;;;;16.72;59.31;95103.94;5064715;28;20213;-63
2022/05/15 01:02:46;;;;;;;8.93;6.05;;;;;;;16.75;59.15;95102.75;5069358;28;20278;-67
2022/05/15 01:05:14;;;;;;;9.68;6.32;;;;;;;16.82;58.94;95097.56;5062758;28;20212;-64
2022/05/15 01:07:40;;;;;;;8.15;6.32;;;;;;;16.73;59.38;95102.09;5057860;28;20221;-62
2022/05/15 01:10:07;;;;;;;6.70;6.10;;;;;;;16.72;59.35;95089.84;5062548;28;20235;-63
2022/05/15 01:12:33;;;;;;;12.27;6.25;;;;;;;16.63;59.35;95094.47;5061589;28;20225;-62
2022/05/15 01:14:59;;;;;;;7.47;6.55;;;;;;;16.67;59.46;95089.59;5065033;28;20221;-66
2022/05/15 01:17:25;;;;;;;8.80;6.32;;;;;;;16.66;59.10;95090.63;5067917;28;20224;-66
2022/05/15 01:20:00;;;;;;;6.40;5.90;;;;;;;16.59;59.33;95095.84;5065880;28;20211;-62
2022/05/15 01:22:26;;;;;;;10.20;6.57;;;;;;;16.52;59.33;95092.31;5052586;28;20260;-68
2022/05/15 01:24:52;;;;;;;7.35;6.18;;;;;;;16.46;59.04;95098.34;5059670;28;20223;-63
2022/05/15 01:27:18;;;;;;;6.68;5.85;;;;;;;16.41;59.10;95093.59;5061761;28;20224;-67
2022/05/15 01:29:46;;;;;;;6.70;6.10;;;;;;;16.44;58.81;95095.88;5063407;28;20239;-65
2022/05/15 01:32:13;;;;;;;8.80;6.53;;;;;;;16.46;59.10;95091.19;5064514;28;20201;-63
2022/05/15 01:34:40;;;;;;;6.72;5.97;;;;;;;16.43;59.06;95088.09;5062525;28;20240;-61
2022/05/15 01:37:07;;;;;;;9.45;7.20;;;;;;;16.52;59.25;95097.59;5063879;28;20247;-67
2022/05/15 01:39:32;;;;;;;7.53;6.68;;;;;;;16.34;59.73;95091.88;5062635;28;20227;-68
2022/05/15 01:41:59;;;;;;;6.35;5.75;;;;;;;16.25;60.04;95091.97;5065585;28;20225;-70
2022/05/15 01:44:25;;;;;;;9.63;6.85;;;;;;;16.30;60.18;95097.56;5064877;28;20221;-70
2022/05/15 01:46:51;;;;;;;7.50;6.70;;;;;;;16.30;60.27;95089.59;5064625;28;20200;-68
2022/05/15 01:49:17;;;;;;;7.53;6.50;;;;;;;16.29;60.01;95090.59;5064520;28;20336;-65
2022/05/15 01:51:43;;;;;;;7.38;6.65;;;;;;;16.24;60.27;95098.28;5066939;28;20228;-69
2022/05/15 01:54:09;;;;;;;7.38;6.13;;;;;;;16.19;60.49;95089.22;5064103;28;20246;-67
2022/05/15 01:56:36;;;;;;;10.85;6.13;;;;;;;16.12;61.01;95090.97;5060235;28;20224;-62
2022/05/15 01:59:06;;;;;;;8.00;6.25;;;;;;;16.09;60.88;95097.44;5062286;28;20526;-69
2022/05/15 02:01:31;;;;;;;6.45;5.82;;;;;;;16.09;60.38;95092.16;5052152;28;20248;-70
2022/05/15 02:03:57;;;;;;;8.93;6.25;;;;;;;16.06;60.14;95092.53;5061611;28;20294;-65
2022/05/15 02:06:22;;;;;;;6.63;5.90;;;;;;;16.12;59.01;95090.97;5066673;28;20245;-67
2022/05/15 02:08:48;;;;;;;7.45;5.82;;;;;;;16.11;59.77;95090.13;5065175;28;20263;-69
2022/05/15 02:11:14;;;;;;;7.00;6.35;;;;;;;15.97;59.77;95090.97;5065358;28;20297;-69
2022/05/15 02:13:40;;;;;;;10.07;5.78;;;;;;;15.92;59.33;95091.53;5064724;28;20223;-64
2022/05/15 02:16:06;;;;;;;6.70;5.70;;;;;;;15.90;59.58;95087.41;5062243;28;20228;-68
2022/05/15 02:18:32;;;;;;;6.68;5.95;;;;;;;16.00;59.38;95090.59;5060318;28;20271;-63
2022/05/15 02:20:58;;;;;;;6.25;5.50;;;;;;;16.01;59.02;95090.44;5060600;28;20240;-69
2022/05/15 02:23:23;;;;;;;6.70;5.25;;;;;;;15.85;59.29;95107.34;5059318;28;20205;-67
2022/05/15 02:25:49;;;;;;;5.55;5.05;;;;;;;15.88;59.17;95096.38;5062736;28;20212;-62
2022/05/15 02:28:15;;;;;;;5.88;5.28;;;;;;;15.90;58.79;95100.66;5064260;28;20294;-62
2022/05/15 02:30:40;;;;;;;6.50;5.72;;;;;;;15.96;58.82;95098.13;5060970;28;20229;-65
2022/05/15 02:33:06;;;;;;;7.03;6.35;;;;;;;15.93;59.04;95113.56;5060427;28;20216;-68
2022/05/15 02:35:34;;;;;;;10.40;6.75;;;;;;;15.86;59.73;95106.34;5060044;28;20241;-72
2022/05/15 02:38:00;;;;;;;6.45;5.82;;;;;;;15.67;60.85;95104.19;5062352;28;20211;-72
2022/05/15 02:40:25;;;;;;;7.00;5.82;;;;;;;15.73;60.79;95111.44;5062227;28;20224;-69
2022/05/15 02:42:55;;;;;;;10.05;6.30;;;;;;;15.68;61.18;95111.13;5063129;28;20231;-70
2022/05/15 02:45:21;;;;;;;8.50;6.82;;;;;;;15.75;60.84;95101.50;5065277;28;20236;-69
2022/05/15 02:47:47;;;;;;;10.75;7.25;;;;;;;15.75;60.59;95112.09;5061624;28;20212;-68
2022/05/15 02:52:57;;;;;;;7.68;6.28;;;;;;;15.66;61.42;95115.78;5060814;28;20211;-66
2022/05/15 02:55:24;;;;;;;8.35;7.15;;;;;;;15.68;61.35;95113.78;5061746;28;20228;-65
2022/05/15 02:57:50;;;;;;;7.82;7.00;;;;;;;15.62;61.61;95122.47;5063003;28;20221;-62
2022/05/15 03:00:18;;;;;;;7.70;6.90;;;;;;;15.55;61.68;95118.88;5063967;28;20285;-68
2022/05/15 03:02:44;;;;;;;12.40;7.35;;;;;;;15.43;61.84;95119.31;5056912;28;20224;-69
2022/05/15 03:05:12;;;;;;;8.70;7.13;;;;;;;15.54;62.09;95133.13;5061067;28;20197;-63
2022/05/15 03:07:38;;;;;;;8.00;7.00;;;;;;;15.63;61.80;95126.75;5062447;28;20288;-62
2022/05/15 03:10:05;;;;;;;11.48;7.47;;;;;;;15.58;62.06;95126.47;5058485;28;20229;-61
2022/05/15 03:12:30;;;;;;;9.38;7.18;;;;;;;15.49;62.45;95127.56;5056766;28;20221;-70
2022/05/15 03:14:56;;;;;;;8.68;7.40;;;;;;;15.43;62.44;95132.56;5063229;28;20231;-65
2022/05/15 03:17:22;;;;;;;8.38;7.60;;;;;;;15.52;62.67;95129.84;5066710;28;20205;-68
2022/05/15 03:19:47;;;;;;;8.43;7.38;;;;;;;15.51;62.67;95134.31;5074054;28;20208;-64
2022/05/15 03:22:13;;;;;;;8.60;7.80;;;;;;;15.58;62.64;95132.63;5062880;28;20221;-67
2022/05/15 03:24:38;;;;;;;10.75;7.78;;;;;;;15.48;62.78;95132.03;5065522;28;20626;-66
2022/05/15 03:27:04;;;;;;;9.65;7.72;;;;;;;15.61;62.49;95132.25;5065110;28;20213;-71
2022/05/15 03:29:30;;;;;;;9.90;7.85;;;;;;;15.53;62.99;95142.06;5063219;28;20204;-62
2022/05/15 03:31:56;;;;;;;19.50;9.32;;;;;;;15.54;62.98;95143.75;5059698;28;20192;-67
2022/05/15 03:34:22;;;;;;;12.27;8.20;;;;;;;15.57;63.03;95138.06;5063808;28;20244;-63
2022/05/15 03:36:51;;;;;;;12.50;7.95;;;;;;;15.57;63.30;95146.03;5063980;28;20255;-71
2022/05/15 03:39:19;;;;;;;9.40;8.38;;;;;;;15.45;63.87;95143.00;5060067;28;20236;-66
2022/05/15 03:41:49;;;;;;;11.40;8.20;;;;;;;15.46;63.62;95139.34;5060260;28;20323;-65
2022/05/15 03:44:15;;;;;;;10.95;8.35;;;;;;;15.48;63.77;95142.63;5059789;28;20229;-65
2022/05/15 03:46:42;;;;;;;10.02;9.02;;;;;;;15.54;63.88;95154.34;5059738;28;20205;-68
2022/05/15 03:49:08;;;;;;;9.43;8.15;;;;;;;15.59;63.35;95150.16;5060579;28;20225;-62
2022/05/15 03:51:34;;;;;;;9.85;8.85;;;;;;;15.53;63.73;95145.56;5069681;28;20235;-69
2022/05/15 03:54:00;;;;;;;9.25;8.15;;;;;;;15.56;63.71;95144.38;5066855;28;20217;-65
2022/05/15 03:59:12;;;;;;;9.23;8.50;;;;;;;15.62;63.71;95138.38;5062913;28;20320;-64
2022/05/15 04:01:40;;;;;;;9.30;8.10;;;;;;;15.66;63.62;95144.94;5070343;28;20288;-66
2022/05/15 04:04:07;;;;;;;10.38;9.38;;;;;;;15.57;63.93;95140.72;5060870;28;20269;-62
2022/05/15 04:06:32;;;;;;;10.60;9.60;;;;;;;15.64;63.88;95142.47;5068594;28;20216;-65
2022/05/15 04:08:58;;;;;;;12.00;10.07;;;;;;;15.67;63.77;95154.56;5066516;28;20244;-70
2022/05/15 04:11:24;;;;;;;10.95;9.45;;;;;;;15.63;64.09;95154.06;5073927;28;20298;-66
2022/05/15 04:13:49;;;;;;;12.68;9.80;;;;;;;15.66;64.03;95155.53;5065356;28;20642;-68
2022/05/15 04:16:15;;;;;;;12.02;9.95;;;;;;;15.65;64.14;95164.50;5065517;28;20319;-63
2022/05/15 04:18:41;;;;;;;10.57;9.48;;;;;;;15.76;63.66;95160.63;5063490;28;20228;-66
2022/05/15 04:21:06;;;;;;;11.00;9.90;;;;;;;15.83;63.65;95165.03;5064668;28;20208;-72
2022/05/15 04:23:32;;;;;;;10.82;9.73;;;;;;;15.68;63.77;95163.31;5065069;28;20236;-64
2022/05/15 04:25:57;;;;;;;11.10;10.00;;;;;;;15.71;63.68;95161.16;5054756;28;20197;-63
2022/05/15 04:28:23;;;;;;;11.73;10.35;;;;;;;15.87;62.96;95163.66;5065776;28;20209;-61
2022/05/15 04:30:49;;;;;;;10.45;9.45;;;;;;;15.90;62.85;95165.13;5066056;28;20628;-66
2022/05/15 04:33:15;;;;;;;11.25;10.15;;;;;;;15.95;62.70;95170.72;5062609;28;20232;-67
2022/05/15 04:35:41;;;;;;;11.60;10.50;;;;;;;16.03;61.95;95165.31;5063321;28;20229;-70
2022/05/15 04:38:10;;;;;;;10.77;9.85;;;;;;;16.04;61.85;95163.53;5066648;28;20271;-69
2022/05/15 04:40:36;;;;;;;14.02;9.85;;;;;;;16.04;61.49;95160.88;5055012;28;20271;-66
2022/05/15 04:43:08;;;;;;;11.43;10.02;;;;;;;16.15;61.22;95159.59;5066393;28;20768;-67
2022/05/15 04:45:33;;;;;;;11.13;9.57;;;;;;;16.28;60.93;95159.78;5065862;28;20214;-67
2022/05/15 04:47:58;;;;;;;9.57;8.68;;;;;;;16.35;60.09;95159.84;5068493;28;20311;-71
2022/05/15 04:50:24;;;;;;;10.07;9.13;;;;;;;16.35;60.34;95159.84;5063951;28;20206;-62
2022/05/15 04:52:49;;;;;;;9.60;8.60;;;;;;;16.46;60.28;95165.50;5065143;28;20197;-61
2022/05/15 04:55:15;;;;;;;9.50;8.55;;;;;;;16.57;60.54;95163.41;5064652;28;20228;-71
2022/05/15 04:57:42;;;;;;;12.50;9.35;;;;;;;16.57;60.35;95166.88;5077616;28;20285;-62
2022/05/15 05:00:17;;;;;;;13.32;8.85;;;;;;;16.67;59.61;95167.41;5047715;28;20304;-66
2022/05/15 05:02:46;;;;;;;10.90;9.10;;;;;;;16.76;59.38;95168.16;5064566;28;20212;-69
2022/05/15 05:05:11;;;;;;;13.15;9.77;;;;;;;16.88;58.93;95169.31;5064213;28;20201;-70
2022/05/15 05:07:40;;;;;;;11.02;8.52;;;;;;;16.94;58.76;95170.41;5063167;28;20294;-69
2022/05/15 05:10:09;;;;;;;9.80;8.90;;;;;;;16.98;58.79;95171.69;5054598;28;20286;-62
2022/05/15 05:12:34;;;;;;;10.35;9.13;;;;;;;17.03;58.03;95168.47;5063145;28;20712;-69
2022/05/15 05:15:00;;;;;;;11.02;9.38;;;;;;;17.06;57.86;95174.22;5054484;28;20225;-71
2022/05/15 05:17:25;;;;;;;11.73;9.65;;;;;;;17.14;58.06;95174.09;5063935;28;20578;-65
2022/05/15 05:19:51;;;;;;;11.75;9.88;;;;;;;17.18;58.03;95170.03;5063134;28;20197;-69
2022/05/15 05:22:16;;;;;;;9.73;8.80;;;;;;;17.23;57.15;95168.69;5065880;28;20255;-73
2022/05/15 05:24:42;;;;;;;10.57;9.40;;;;;;;17.26;57.17;95166.44;5060319;28;20227;-61
2022/05/15 05:27:08;;;;;;;15.07;8.32;;;;;;;17.41;56.25;95171.72;5062441;28;20242;-72
2022/05/15 05:29:34;;;;;;;8.50;7.72;;;;;;;17.35;56.16;95172.50;5061874;28;20228;-62
2022/05/15 05:32:00;;;;;;;10.93;8.25;;;;;;;17.38;56.47;95170.25;5061548;28;20237;-64
2022/05/15 05:34:35;;;;;;;11.18;7.38;;;;;;;17.49;57.44;95178.75;5051979;28;20301;-65
2022/05/15 05:37:01;;;;;;;9.07;8.10;;;;;;;17.52;57.17;95179.19;5063426;28;20547;-65
2022/05/15 05:39:29;;;;;;;11.07;8.55;;;;;;;17.47;58.39;95178.94;5064732;28;20607;-63
2022/05/15 05:41:58;;;;;;;10.38;8.98;;;;;;;17.63;57.71;95168.03;5065831;28;20220;-65
2022/05/15 05:44:25;;;;;;;9.63;8.38;;;;;;;17.60;57.60;95170.25;5063646;28;20300;-62
2022/05/15 05:46:50;;;;;;;10.65;8.85;;;;;;;17.77;56.70;95174.25;5064918;28;20360;-68
2022/05/15 05:49:16;;;;;;;11.65;9.80;;;;;;;17.79;56.22;95163.47;5064657;28;20474;-61
2022/05/15 05:51:42;;;;;;;10.70;7.88;;;;;;;17.80;55.26;95171.28;5066422;28;20247;-62
2022/05/15 05:54:07;;;;;;;8.60;6.05;;;;;;;17.84;55.04;95167.19;5066106;28;20224;-67
2022/05/15 05:56:32;;;;;;;8.23;6.13;;;;;;;17.95;54.51;95157.06;5066460;28;20220;-69
2022/05/15 05:58:58;;;;;;;6.88;5.45;;;;;;;18.00;53.54;95160.78;5064338;28;20220;-70
2022/05/15 06:01:23;;;;;;;9.20;5.90;;;;;;;18.16;52.87;95164.97;5058558;28;20219;-70
2022/05/15 06:06:33;;;;;;;7.35;5.10;;;;;;;18.32;51.54;95169.16;5060701;28;20231;-63
2022/05/15 06:08:58;;;;;;;7.50;4.93;;;;;;;18.43;51.00;95163.28;5065033;28;20224;-67
2022/05/15 06:11:24;;;;;;;6.80;4.68;;;;;;;18.50;50.83;95161.50;5065939;28;20203;-62
2022/05/15 06:13:49;;;;;;;6.45;4.90;;;;;;;18.53;50.98;95157.63;5064287;28;20266;-69
2022/05/15 06:16:21;;;;;;;5.18;4.43;;;;;;;18.59;50.71;95153.34;5061203;28;20225;-69
2022/05/15 06:18:46;;;;;;;11.30;5.68;;;;;;;18.64;50.78;95161.56;5060476;28;20279;-63
2022/05/15 06:21:13;;;;;;;6.47;4.68;;;;;;;18.72;50.65;95169.38;5060876;28;20216;-66
2022/05/15 06:23:38;;;;;;;8.80;4.40;;;;;;;18.70;50.92;95166.06;5060151;28;20531;-67
2022/05/15 06:26:04;;;;;;;12.13;5.35;;;;;;;18.69;50.52;95159.13;5071538;28;20709;-62
2022/05/15 06:28:29;;;;;;;6.47;4.80;;;;;;;18.65;50.83;95164.00;5060821;28;20217;-70
2022/05/15 06:30:56;;;;;;;9.20;5.30;;;;;;;18.65;51.08;95164.00;5072601;28;20216;-73
2022/05/15 06:33:21;;;;;;;6.88;5.05;;;;;;;18.75;50.55;95165.53;5061149;28;20248;-66
2022/05/15 06:35:47;;;;;;;7.63;4.43;;;;;;;18.70;49.59;95158.91;5059706;28;20283;-61
2022/05/15 06:38:12;;;;;;;8.65;4.65;;;;;;;18.62;49.69;95158.25;5060835;28;20220;-66
2022/05/15 06:40:38;;;;;;;6.90;4.55;;;;;;;18.66;50.35;95171.00;5075098;28;20272;-64
2022/05/15 06:43:04;;;;;;;7.53;4.75;;;;;;;18.67;49.84;95164.63;5064182;28;20306;-67
2022/05/15 06:45:30;;;;;;;10.27;4.43;;;;;;;18.68;49.89;95168.09;5063739;28;20266;-63
2022/05/15 06:47:55;;;;;;;4.50;4.05;;;;;;;18.72;49.50;95174.69;5066308;28;20221;-67
2022/05/15 06:50:21;;;;;;;6.80;4.50;;;;;;;18.75;49.07;95174.34;5061147;28;20205;-61
2022/05/15 06:52:46;;;;;;;8.73;4.40;;;;;;;18.68;49.43;95168.97;5080102;28;20252;-66
2022/05/15 06:55:15;;;;;;;9.55;3.83;;;;;;;18.80;48.58;95171.06;5070949;28;20299;-66
2022/05/15 06:57:42;;;;;;;4.63;3.97;;;;;;;18.89;48.17;95168.03;5060493;28;20720;-63
2022/05/15 07:00:15;;;;;;;5.78;3.85;;;;;;;18.94;47.31;95172.75;5074318;28;20224;-68
2022/05/15 07:02:41;;;;;;;7.15;4.22;;;;;;;19.09;46.70;95162.78;5057124;28;20221;-69
2022/05/15 07:05:09;;;;;;;5.85;3.35;;;;;;;19.18;46.48;95174.06;5054997;28;20225;-68
2022/05/15 07:07:34;;;;;;;5.95;3.38;;;;;;;19.24;46.20;95172.44;5047401;28;20237;-62
2022/05/15 07:09:59;;;;;;;5.47;3.85;;;;;;;19.24;46.33;95172.44;5052524;28;20228;-64
2022/05/15 07:12:25;;;;;;;4.68;3.50;;;;;;;19.39;46.53;95168.56;5058650;28;20217;-62
2022/05/15 07:14:51;;;;;;;4.50;3.58;;;;;;;19.30;46.41;95166.28;5049333;28;20298;-63
2022/05/15 07:17:19;;;;;;;5.47;3.83;;;;;;;19.35;46.06;95170.03;5057979;28;20200;-66
2022/05/15 07:19:45;;;;;;;5.53;3.28;;;;;;;19.32;46.69;95167.72;5059853;28;20296;-68
2022/05/15 07:22:10;;;;;;;5.35;3.72;;;;;;;19.37;46.87;95167.94;5061103;28;20270;-64
2022/05/15 07:24:38;;;;;;;6.20;3.50;;;;;;;19.61;45.60;95173.72;5069303;28;20293;-63
2022/05/15 07:27:09;;;;;;;4.30;3.58;;;;;;;19.61;45.25;95173.72;5063081;28;20232;-71
2022/05/15 07:29:37;;;;;;;7.25;3.88;;;;;;;19.59;45.53;95179.28;5063337;28;20544;-66
2022/05/15 07:32:04;;;;;;;5.00;3.40;;;;;;;19.61;45.47;95169.22;5058914;28;20201;-69
2022/05/15 07:34:30;;;;;;;4.20;3.63;;;;;;;19.71;45.74;95171.50;5058256;28;20236;-70
2022/05/15 07:36:55;;;;;;;4.93;2.92;;;;;;;19.80;45.19;95169.47;5059268;28;20225;-69
2022/05/15 07:39:21;;;;;;;7.40;3.20;;;;;;;19.80;45.29;95175.59;5065187;28;20295;-70
2022/05/15 07:41:48;;;;;;;3.90;2.70;;;;;;;19.89;43.38;95172.72;5060280;28;20217;-70
2022/05/15 07:44:14;;;;;;;3.78;2.88;;;;;;;19.95;42.67;95166.59;5061846;28;20236;-63
2022/05/15 07:46:40;;;;;;;5.05;2.60;;;;;;;20.06;42.23;95171.31;5062260;28;20228;-63
2022/05/15 07:49:07;;;;;;;4.18;2.53;;;;;;;20.19;41.77;95165.94;5062935;28;20235;-61
2022/05/15 07:51:33;;;;;;;5.63;2.60;;;;;;;20.12;42.93;95166.97;5078579;28;20243;-70
2022/05/15 07:53:59;;;;;;;5.88;3.15;;;;;;;20.19;42.64;95165.13;5062126;28;20217;-61
2022/05/15 07:56:25;;;;;;;3.30;3.00;;;;;;;20.04;42.74;95184.84;5065112;28;20240;-65
2022/05/15 07:58:51;;;;;;;3.30;2.22;;;;;;;19.93;40.55;95176.66;5057346;28;20762;-62
2022/05/15 08:01:16;;;;;;;5.40;2.50;;;;;;;20.00;40.43;95170.28;5062523;28;20229;-67
2022/05/15 08:03:45;;;;;;;4.10;2.40;;;;;;;20.12;39.27;95173.13;5061688;28;20236;-70
2022/05/15 08:09:00;;;;;;;4.57;2.55;;;;;;;20.11;38.98;95174.19;5059488;28;20223;-62
2022/05/15 08:11:28;;;;;;;3.90;2.60;;;;;;;20.13;39.76;95176.63;5061255;28;20209;-62
2022/05/15 08:13:56;;;;;;;2.72;2.30;;;;;;;20.12;39.79;95191.81;5061670;28;20275;-65
2022/05/15 08:16:22;;;;;;;4.65;2.58;;;;;;;20.02;40.75;95191.41;5062066;28;20225;-68
2022/05/15 08:24:16;;;;;;;7.70;2.92;;;;;;;20.05;41.07;95191.03;5060189;28;20231;-65
2022/05/15 08:26:44;;;;;;;6.28;3.05;;;;;;;20.04;39.88;95192.03;5059945;28;20224;-65
2022/05/15 08:29:10;;;;;;;4.70;2.58;;;;;;;20.12;40.21;95199.00;5060168;28;20299;-65
2022/05/15 08:31:35;;;;;;;6.43;2.78;;;;;;;20.26;40.15;95196.13;5059113;28;20656;-68
2022/05/15 08:34:01;;;;;;;4.68;2.70;;;;;;;20.34;39.16;95204.94;5060315;28;20264;-68
2022/05/15 08:36:26;;;;;;;4.05;2.40;;;;;;;20.27;38.53;95199.63;5062165;28;20264;-68
2022/05/15 08:38:52;;;;;;;4.60;2.70;;;;;;;20.30;38.81;95199.19;5060388;28;20250;-65
2022/05/15 08:41:42;;;;;;;4.63;2.47;;;;;;;20.44;38.54;95208.81;5063176;28;20870;-61
2022/05/15 08:44:11;;;;;;;3.55;2.47;;;;;;;20.45;37.92;95204.34;5051147;28;20207;-66
2022/05/15 08:46:48;;;;;;;5.28;2.58;;;;;;;20.47;37.07;95197.75;5060952;28;20224;-66
2022/05/15 08:49:32;;;;;;;4.03;2.55;;;;;;;20.51;37.79;95206.16;5051585;28;20227;-65
2022/05/15 08:52:04;;;;;;;4.50;2.47;;;;;;;20.53;37.58;95197.91;5060335;28;20229;-69
2022/05/15 08:54:37;;;;;;;5.55;3.10;;;;;;;20.50;38.09;95196.47;5053680;28;20604;-63
2022/05/15 08:57:03;;;;;;;5.75;3.08;;;;;;;20.65;37.11;95198.97;5064322;28;20224;-71
2022/05/15 08:59:38;;;;;;;8.68;2.60;;;;;;;20.72;37.28;95197.09;5051062;28;20205;-66
2022/05/15 09:02:11;;;;;;;7.05;2.70;;;;;;;20.79;37.80;95199.72;5062344;28;20219;-68
2022/05/15 09:04:36;;;;;;;2.92;2.20;;;;;;;20.80;36.22;95206.75;5046207;28;20733;-66
2022/05/15 09:07:30;;;;;;;2.90;2.17;;;;;;;20.80;36.20;95204.06;5063030;28;20251;-69
2022/05/15 09:10:20;;;;;;;4.35;2.30;;;;;;;20.86;37.03;95203.22;5061899;28;20295;-67
2022/05/15 09:12:55;;;;;;;5.45;2.15;;;;;;;20.91;35.92;95200.72;5050179;28;20232;-66
2022/05/15 09:15:24;;;;;;;6.80;2.33;;;;;;;20.89;34.71;95198.25;5058314;28;20224;-68
2022/05/15 09:17:53;;;;;;;3.90;2.63;;;;;;;21.00;34.43;95188.75;5061899;28;20228;-66
2022/05/15 09:20:22;;;;;;;5.28;2.40;;;;;;;21.17;33.36;95186.44;5061393;28;20618;-66
2022/05/15 09:23:04;;;;;;;3.90;1.83;;;;;;;21.24;32.69;95199.75;5064946;28;20681;-67
2022/05/15 09:25:34;;;;;;;3.20;1.60;;;;;;;21.40;32.33;95193.94;5056473;28;20701;-63
2022/05/15 09:28:12;;;;;;;3.75;2.30;;;;;;;21.48;32.89;95193.69;5062135;28;20229;-64
2022/05/15 09:30:46;;;;;;;4.20;1.50;;;;;;;21.61;31.79;95189.28;5056931;28;20307;-64
2022/05/15 09:33:50;;;;;;;4.13;2.15;;;;;;;21.79;31.68;95184.84;5059961;28;20722;-65
2022/05/15 09:36:27;;;;;;;4.90;2.17;;;;;;;21.91;30.94;95192.16;5044133;28;20232;-65
2022/05/15 09:39:35;;;;;;;2.88;1.92;;;;;;;21.95;32.07;95193.38;5054843;28;20232;-66
2022/05/15 09:44:57;;;;;;;4.50;1.70;;;;;;;22.19;30.28;95175.69;5017830;28;20942;-63
2022/05/15 09:47:28;;;;;;;8.77;2.00;;;;;;;22.41;30.46;95184.13;5004352;28;20202;-66
2022/05/15 09:49:54;;;;;;;7.03;2.30;;;;;;;22.55;30.38;95179.44;5021353;28;20202;-63
2022/05/15 09:52:26;;;;;;;4.30;1.95;;;;;;;22.64;30.23;95180.78;5004300;28;20229;-63
2022/05/15 09:54:51;;;;;;;4.10;1.95;;;;;;;22.76;29.66;95184.38;5001714;28;20742;-66
2022/05/15 09:57:17;;;;;;;5.93;2.13;;;;;;;22.86;28.98;95165.91;5004912;28;20264;-63
2022/05/15 09:59:51;;;;;;;4.40;1.77;;;;;;;23.02;28.85;95169.06;5008183;28;20221;-64
2022/05/15 10:02:21;;;;;;;2.85;1.90;;;;;;;23.04;28.58;95172.31;5017083;28;20267;-65
2022/05/15 10:04:50;;;;;;;3.85;2.47;;;;;;;23.11;29.22;95162.31;5002325;28;20221;-65
2022/05/15 10:07:40;;;;;;;3.20;2.00;;;;;;;23.32;27.74;95179.78;5003016;28;20442;-66
2022/05/15 10:10:22;;;;;;;2.53;1.98;;;;;;;23.03;28.21;95170.69;5020515;28;20237;-65
2022/05/15 10:12:52;;;;;;;3.55;1.85;;;;;;;23.30;27.92;95168.47;5007150;28;20229;-66
2022/05/15 10:15:19;;;;;;;2.97;2.30;;;;;;;23.39;29.31;95172.47;5009444;28;20231;-66
2022/05/15 10:17:55;;;;;;;6.03;2.03;;;;;;;23.64;29.10;95166.94;5048184;28;20228;-64
2022/05/15 10:20:32;;;;;;;2.28;1.67;;;;;;;23.90;26.75;95173.81;5056585;28;20878;-66
2022/05/15 10:23:12;;;;;;;4.15;2.08;;;;;;;24.04;26.46;95174.41;5051376;28;20208;-67
2022/05/15 10:25:55;;;;;;;3.75;1.77;;;;;;;24.17;26.61;95174.19;5063065;28;20212;-65
2022/05/15 10:28:39;;;;;;;4.55;2.10;;;;;;;24.19;26.62;95168.56;5056379;28;20232;-63
2022/05/15 10:31:27;;;;;;;3.00;2.35;;;;;;;24.21;27.05;95164.59;5049835;28;20228;-66
2022/05/15 10:34:00;;;;;;;2.47;1.73;;;;;;;24.33;27.59;95158.44;5058867;28;20225;-66
2022/05/15 10:36:43;;;;;;;2.65;2.05;;;;;;;24.34;27.43;95160.88;5064236;28;20813;-66
2022/05/15 10:39:14;;;;;;;4.95;1.98;;;;;;;24.41;27.61;95160.75;5060690;28;20266;-64
2022/05/15 10:41:55;;;;;;;5.05;2.10;;;;;;;24.67;26.70;95166.72;5058445;28;20225;-66
2022/05/15 10:44:29;;;;;;;3.92;1.77;;;;;;;24.73;25.78;95161.22;5056444;28;20289;-67
2022/05/15 10:47:03;;;;;;;4.57;2.28;;;;;;;24.76;25.16;95162.63;5063701;28;20200;-61
2022/05/15 10:49:35;;;;;;;3.60;1.75;;;;;;;24.79;23.29;95164.84;5057801;28;20563;-61
2022/05/15 10:52:15;;;;;;;2.45;1.58;;;;;;;24.84;23.47;95165.75;5054300;28;20287;-67
2022/05/15 10:58:02;;;;;;;4.50;2.22;;;;;;;25.13;26.98;95152.34;5053511;28;20235;-61
2022/05/15 11:00:47;;;;;;;4.18;2.28;;;;;;;25.38;26.64;95145.84;5063502;28;20223;-63
2022/05/15 11:03:31;;;;;;;10.07;2.17;;;;;;;25.46;26.59;95154.34;5058018;28;20224;-67
2022/05/15 11:06:29;;;;;;;3.70;2.08;;;;;;;25.39;26.02;95153.66;5066448;28;20239;-67
2022/05/15 11:09:02;;;;;;;2.60;2.15;;;;;;;25.40;26.63;95147.22;4990304;28;20298;-68
2022/05/15 11:11:54;;;;;;;3.45;1.60;;;;;;;25.51;25.84;95153.63;4993678;28;20277;-67
2022/05/15 11:14:31;;;;;;;3.65;2.42;;;;;;;25.55;25.91;95143.97;4980340;28;20344;-61
2022/05/15 11:17:08;;;;;;;4.07;2.20;;;;;;;25.71;25.29;95145.06;5002747;28;20226;-68
2022/05/15 11:19:37;;;;;;;4.03;2.00;;;;;;;25.77;24.69;95149.50;4988384;28;20676;-64
2022/05/15 11:22:20;;;;;;;2.72;2.00;;;;;;;25.84;25.45;95147.47;5009361;28;20226;-63
2022/05/15 11:25:10;;;;;;;3.58;2.15;;;;;;;25.51;25.79;95138.28;4989645;28;20396;-63
2022/05/15 11:27:48;;;;;;;3.25;2.10;;;;;;;25.53;26.01;95136.16;5003271;28;20227;-61
2022/05/15 11:30:34;;;;;;;4.43;2.00;;;;;;;25.70;26.40;95129.97;4989117;28;20322;-62
2022/05/15 11:33:31;;;;;;;2.92;2.08;;;;;;;25.82;26.25;95128.03;5005832;28;20234;-63
2022/05/15 11:36:14;;;;;;;4.32;2.47;;;;;;;25.86;26.08;95128.38;4950037;28;20256;-63
2022/05/15 11:38:55;;;;;;;3.97;2.35;;;;;;;26.17;26.02;95135.09;4934402;28;20217;-66
2022/05/15 11:41:35;;;;;;;3.45;2.00;;;;;;;26.26;25.74;95124.69;4940557;29;20232;-63
2022/05/15 11:44:04;;;;;;;3.67;2.30;;;;;;;26.23;25.75;95117.91;4932581;28;20620;-63
2022/05/15 11:46:57;;;;;;;2.45;1.90;;;;;;;26.29;26.20;95122.31;4986991;28;20219;-64
2022/05/15 11:49:33;;;;;;;3.05;2.40;;;;;;;26.49;26.21;95120.94;5003062;28;20226;-62
2022/05/15 11:52:23;;;;;;;6.28;2.40;;;;;;;26.75;25.72;95108.66;5004439;28;20233;-62
2022/05/15 11:54:52;;;;;;;3.58;2.15;;;;;;;26.68;26.32;95108.00;5016832;28;20230;-68
2022/05/15 11:57:43;;;;;;;3.67;2.53;;;;;;;26.74;27.32;95105.16;5022564;28;20264;-62
2022/05/15 12:00:21;;;;;;;2.50;2.30;;;;;;;27.12;27.12;95116.09;5008986;28;20230;-60
2022/05/15 12:02:50;;;;;;;2.40;2.20;;;;;;;27.34;25.96;95108.00;5009215;28;20596;-65
2022/05/15 12:05:44;;;;;;;4.07;2.42;;;;;;;27.16;26.60;95104.56;5022812;28;20194;-65